createdAt,value
2022-08-24T00:09:10.639Z,92.23
2022-08-24T00:19:17.286Z,92.14
2022-08-24T00:29:24.747Z,92.69
2022-08-24T00:39:30.814Z,92.65
2022-08-24T00:49:41.869Z,92.85
2022-08-24T00:59:51.655Z,93.01
2022-08-24T01:10:05.282Z,93.46
2022-08-24T01:20:13.799Z,93.69
2022-08-24T01:30:21.583Z,93.99
2022-08-24T01:40:39.757Z,94.08
2022-08-24T01:50:45.581Z,94.42
2022-08-24T02:00:51.483Z,94.65
2022-08-24T02:10:57.734Z,95.00
2022-08-24T02:21:03.934Z,95.56
2022-08-24T02:31:12.208Z,95.84
2022-08-24T02:41:16.457Z,96.12
2022-08-24T02:51:24.652Z,96.33
2022-08-24T03:01:32.929Z,96.85
2022-08-24T03:11:39.528Z,96.75
2022-08-24T03:21:50.453Z,96.97
2022-08-24T03:31:57.559Z,97.71
2022-08-24T03:42:05.852Z,98.04
2022-08-24T03:52:11.729Z,97.98
2022-08-24T04:02:17.842Z,97.59
2022-08-24T04:12:23.883Z,97.27
2022-08-24T04:22:31.893Z,97.03
2022-08-24T04:32:37.717Z,96.64
2022-08-24T04:42:44.505Z,96.17
2022-08-24T04:52:50.765Z,95.81
2022-08-24T05:02:57.520Z,95.31
2022-08-24T05:13:03.681Z,94.19
2022-08-24T05:23:09.924Z,93.06
2022-08-24T05:33:15.849Z,88.12
2022-08-24T05:43:21.734Z,79.40
2022-08-24T05:53:27.842Z,77.19
2022-08-24T06:03:37.617Z,78.54
2022-08-24T06:13:43.448Z,79.25
2022-08-24T06:23:51.150Z,79.02
2022-08-24T06:33:55.810Z,77.87
2022-08-24T06:44:02.039Z,76.28
2022-08-24T06:54:08.254Z,75.20
2022-08-24T07:04:14.055Z,74.22
2022-08-24T07:14:21.730Z,72.45
2022-08-24T07:24:27.906Z,69.65
2022-08-24T07:34:34.042Z,67.73
2022-08-24T07:44:40.536Z,64.13
2022-08-24T07:54:44.762Z,61.17
2022-08-24T08:04:50.638Z,58.81
2022-08-24T08:14:57.558Z,52.23
2022-08-24T08:25:03.436Z,47.66
2022-08-24T08:35:10.874Z,44.81
2022-08-24T08:45:32.365Z,46.11
2022-08-24T08:55:47.045Z,47.95
2022-08-24T09:06:13.859Z,50.40
2022-08-24T09:16:25.861Z,50.55
2022-08-24T09:26:39.733Z,51.40
2022-08-24T09:36:56.621Z,52.02
2022-08-24T09:47:51.602Z,52.80
2022-08-24T09:58:13.596Z,52.75
2022-08-24T10:08:30.174Z,53.58
2022-08-24T10:18:52.369Z,54.34
2022-08-24T10:29:15.618Z,54.90
2022-08-24T10:40:02.966Z,55.84
2022-08-24T10:50:35.751Z,56.70
2022-08-24T11:00:43.129Z,57.72
2022-08-24T11:11:04.935Z,58.58
2022-08-24T11:21:11.182Z,59.55
2022-08-24T11:31:30.191Z,59.94
2022-08-24T11:41:49.278Z,60.51
2022-08-24T11:52:01.752Z,60.67
2022-08-24T12:02:15.128Z,61.18
2022-08-24T12:12:28.852Z,61.31
2022-08-24T12:22:35.242Z,61.80
2022-08-24T12:32:44.902Z,61.93
2022-08-24T12:42:54.796Z,61.53
2022-08-24T12:53:27.510Z,61.40
2022-08-24T13:03:38.180Z,61.60
2022-08-24T13:13:49.082Z,62.10
2022-08-24T13:24:39.738Z,61.81
2022-08-24T13:34:48.076Z,61.33
2022-08-24T13:45:08.716Z,60.77
2022-08-24T13:55:32.932Z,60.96
2022-08-24T14:05:47.195Z,61.19
2022-08-24T14:16:14.162Z,61.19
2022-08-24T14:27:06.972Z,60.98
2022-08-24T14:37:23.944Z,61.29
2022-08-24T14:47:52.178Z,60.73
2022-08-24T14:58:17.530Z,60.80
2022-08-24T15:08:39.320Z,61.04
2022-08-24T15:18:55.540Z,61.84
2022-08-24T15:29:13.176Z,61.54
2022-08-24T15:39:28.135Z,61.14
2022-08-24T15:49:39.579Z,62.07
2022-08-24T15:59:51.107Z,62.86
2022-08-24T16:10:12.994Z,63.04
2022-08-24T16:20:33.897Z,63.24
2022-08-24T16:30:44.653Z,63.87
2022-08-24T16:40:52.419Z,64.59
2022-08-24T16:50:58.268Z,64.69
2022-08-24T17:01:05.412Z,64.93
2022-08-24T17:11:11.356Z,65.19
2022-08-24T17:21:17.877Z,65.80
2022-08-24T17:31:25.417Z,66.28
2022-08-24T17:41:31.342Z,66.92
2022-08-24T17:51:37.328Z,67.61
2022-08-24T18:01:44.633Z,68.57
2022-08-24T18:11:50.572Z,69.42
2022-08-24T18:21:56.573Z,70.11
2022-08-24T18:32:02.672Z,66.75
2022-08-24T18:42:12.674Z,68.14
2022-08-24T18:52:19.477Z,71.00
2022-08-24T19:02:33.477Z,73.24
2022-08-24T19:12:46.779Z,74.99
2022-08-24T19:22:52.922Z,76.88
2022-08-24T19:32:59.882Z,78.33
2022-08-24T19:43:05.923Z,79.23
2022-08-24T19:53:15.073Z,80.12
2022-08-24T20:03:20.928Z,80.67
2022-08-24T20:13:26.745Z,80.75
2022-08-24T20:23:33.084Z,81.23
2022-08-24T20:33:38.789Z,81.76
2022-08-24T20:43:45.119Z,82.13
2022-08-24T20:53:50.917Z,82.23
2022-08-24T21:04:00.271Z,82.28
2022-08-24T21:14:08.687Z,83.31
2022-08-24T21:24:15.439Z,84.43
2022-08-24T21:34:38.659Z,85.10
2022-08-24T21:44:45.902Z,85.20
2022-08-24T21:54:52.276Z,85.77
2022-08-24T22:04:58.120Z,86.23
2022-08-24T22:15:04.836Z,86.91
2022-08-24T22:25:13.101Z,87.26
2022-08-24T22:35:18.915Z,87.75
2022-08-24T22:45:25.125Z,87.99
2022-08-24T22:55:33.205Z,87.89
2022-08-24T23:05:38.938Z,88.07
2022-08-24T23:15:45.073Z,88.44
2022-08-24T23:25:51.053Z,88.57
2022-08-24T23:35:56.926Z,88.79
2022-08-24T23:46:07.456Z,88.78
2022-08-24T23:56:15.687Z,88.69
